createdAt,value
2019-01-06T00:01:05.546Z,11.53
2019-01-06T00:03:53.829Z,10.80
2019-01-06T00:06:40.028Z,12.80
2019-01-06T00:09:32.242Z,11.43
2019-01-06T00:12:20.516Z,13.20
2019-01-06T00:15:04.226Z,15.33
2019-01-06T00:17:51.343Z,13.50
2019-01-06T00:20:44.391Z,13.20
2019-01-06T00:23:32.653Z,14.20
2019-01-06T00:26:30.132Z,14.37
2019-01-06T00:29:33.808Z,14.03
2019-01-06T00:32:20.857Z,14.27
2019-01-06T00:35:28.393Z,15.53
2019-01-06T00:38:35.638Z,15.90
2019-01-06T00:41:42.893Z,15.27
2019-01-06T00:44:50.163Z,15.17
2019-01-06T00:50:56.339Z,15.07
2019-01-06T00:53:56.741Z,14.80
2019-01-06T00:56:56.330Z,14.77
2019-01-06T00:59:50.343Z,14.73
2019-01-06T01:02:50.329Z,15.60
2019-01-06T01:05:50.965Z,13.27
2019-01-06T01:08:48.052Z,13.57
2019-01-06T01:11:48.393Z,14.00
2019-01-06T01:14:48.820Z,13.80
2019-01-06T01:17:51.521Z,16.00
2019-01-06T01:20:56.825Z,14.87
2019-01-06T01:23:45.074Z,12.80
2019-01-06T01:26:52.347Z,13.23
2019-01-06T01:29:59.695Z,12.70
2019-01-06T01:33:07.100Z,14.47
2019-01-06T01:39:09.198Z,13.83
2019-01-06T01:42:14.804Z,13.40
2019-01-06T01:45:15.479Z,13.47
2019-01-06T01:48:15.537Z,12.63
2019-01-06T01:51:16.222Z,13.00
2019-01-06T01:54:21.525Z,13.80
2019-01-06T01:57:21.650Z,11.63
2019-01-06T02:03:26.549Z,13.27
2019-01-06T02:09:35.573Z,14.40
2019-01-06T02:12:38.020Z,14.53
2019-01-06T02:15:37.971Z,13.33
2019-01-06T02:18:37.488Z,15.97
2019-01-06T02:21:37.138Z,14.27
2019-01-06T02:24:37.809Z,14.80
2019-01-06T02:27:38.907Z,15.40
2019-01-06T02:30:39.111Z,14.57
2019-01-06T02:33:39.722Z,13.57
2019-01-06T02:36:40.818Z,14.40
2019-01-06T02:42:43.152Z,15.33
2019-01-06T02:45:31.385Z,14.33
2019-01-06T02:48:38.723Z,14.90
2019-01-06T02:51:46.050Z,18.40
2019-01-06T02:54:53.340Z,16.67
2019-01-06T02:58:00.607Z,15.90
2019-01-06T03:01:07.943Z,16.63
2019-01-06T03:04:15.225Z,16.93
2019-01-06T03:07:22.502Z,14.23
2019-01-06T03:10:29.858Z,15.37
2019-01-06T03:13:37.198Z,16.07
2019-01-06T03:16:44.597Z,15.20
2019-01-06T03:19:51.832Z,14.03
2019-01-06T03:22:59.122Z,15.87
2019-01-06T03:26:06.397Z,13.93
2019-01-06T03:29:13.940Z,15.33
2019-01-06T03:32:21.224Z,12.37
2019-01-06T03:35:28.593Z,17.07
2019-01-06T03:38:35.926Z,14.00
2019-01-06T03:41:43.253Z,14.40
2019-01-06T03:44:43.496Z,12.60
2019-01-06T03:47:43.011Z,12.50
2019-01-06T03:53:49.406Z,11.73
2019-01-06T03:56:49.442Z,10.07
2019-01-06T03:59:45.424Z,10.60
2019-01-06T04:02:52.717Z,9.10
2019-01-06T04:06:00.044Z,9.87
2019-01-06T04:09:07.381Z,11.10
2019-01-06T04:11:55.847Z,9.20
2019-01-06T04:14:53.828Z,8.67
2019-01-06T04:18:01.132Z,8.53
2019-01-06T04:21:08.391Z,9.80
2019-01-06T04:24:04.113Z,9.40
2019-01-06T04:27:04.646Z,10.33
2019-01-06T04:30:07.750Z,9.90
2019-01-06T04:33:07.387Z,8.20
2019-01-06T04:36:06.954Z,10.43
2019-01-06T04:42:15.861Z,8.70
2019-01-06T04:45:18.577Z,8.93
2019-01-06T04:48:18.827Z,9.90
2019-01-06T04:51:18.500Z,10.03
2019-01-06T04:54:26.842Z,11.07
2019-01-06T04:57:27.228Z,10.47
2019-01-06T05:00:27.482Z,11.93
2019-01-06T05:06:13.370Z,13.77
2019-01-06T05:12:24.018Z,14.10
2019-01-06T05:18:33.804Z,16.27
2019-01-06T05:21:34.382Z,16.77
2019-01-06T05:27:43.014Z,16.87
2019-01-06T05:33:55.281Z,21.43
2019-01-06T05:40:07.322Z,23.17
2019-01-06T05:43:09.704Z,19.97
2019-01-06T05:46:03.313Z,20.33
2019-01-06T05:49:06.381Z,20.47
2019-01-06T05:52:06.002Z,21.07
2019-01-06T05:55:09.306Z,22.60
2019-01-06T05:58:10.816Z,22.17
2019-01-06T06:01:10.527Z,23.57
2019-01-06T06:04:12.266Z,24.53
2019-01-06T06:07:15.434Z,23.20
2019-01-06T06:10:18.034Z,23.07
2019-01-06T06:13:19.519Z,23.67
2019-01-06T06:19:29.461Z,27.50
2019-01-06T06:22:14.740Z,22.20
2019-01-06T06:25:15.789Z,26.50
2019-01-06T06:31:27.748Z,23.03
2019-01-06T06:34:28.165Z,24.00
2019-01-06T06:37:27.087Z,24.63
2019-01-06T06:40:30.474Z,26.90
2019-01-06T06:43:11.073Z,24.60
2019-01-06T06:46:17.193Z,25.13
2019-01-06T06:52:21.909Z,26.97
2019-01-06T06:58:24.010Z,27.77
2019-01-06T07:01:06.220Z,29.30
2019-01-06T07:03:55.436Z,31.97
2019-01-06T07:06:42.617Z,28.50
2019-01-06T07:09:36.786Z,30.67
2019-01-06T07:12:24.016Z,29.13
2019-01-06T07:15:11.413Z,30.70
2019-01-06T07:18:08.150Z,29.13
2019-01-06T07:20:58.296Z,27.43
2019-01-06T07:23:45.473Z,28.50
2019-01-06T07:26:32.743Z,30.23
2019-01-06T07:29:16.677Z,31.10
2019-01-06T07:32:11.153Z,29.33
2019-01-06T07:35:17.657Z,31.67
2019-01-06T07:38:12.293Z,29.00
2019-01-06T07:40:59.397Z,29.07
2019-01-06T07:43:47.697Z,27.77
2019-01-06T07:46:35.928Z,29.77
2019-01-06T07:49:39.204Z,28.57
2019-01-06T07:52:20.936Z,28.70
2019-01-06T07:55:18.873Z,27.20
2019-01-06T07:58:05.805Z,30.07
2019-01-06T08:00:54.797Z,29.93
2019-01-06T08:03:43.076Z,31.87
2019-01-06T08:06:43.672Z,27.10
2019-01-06T08:09:31.989Z,31.23
2019-01-06T08:12:18.826Z,28.43
2019-01-06T08:15:07.485Z,30.03
2019-01-06T08:17:55.877Z,26.10
2019-01-06T08:20:51.374Z,27.37
2019-01-06T08:23:56.315Z,27.50
2019-01-06T08:26:53.852Z,28.33
2019-01-06T08:29:45.232Z,29.20
2019-01-06T08:32:36.511Z,29.23
2019-01-06T08:35:23.644Z,28.17
2019-01-06T08:38:10.972Z,29.37
2019-01-06T08:40:51.183Z,29.40
2019-01-06T08:43:38.666Z,27.67
2019-01-06T08:46:25.553Z,27.70
2019-01-06T08:49:16.856Z,31.93
2019-01-06T08:52:24.120Z,29.90
2019-01-06T08:55:26.970Z,29.43
2019-01-06T08:58:30.461Z,29.47
2019-01-06T09:01:35.013Z,32.07
2019-01-06T09:04:46.969Z,31.80
2019-01-06T09:07:34.387Z,31.67
2019-01-06T09:10:21.514Z,27.80
2019-01-06T09:13:19.724Z,30.87
2019-01-06T09:16:06.875Z,32.20
2019-01-06T09:19:10.654Z,30.17
2019-01-06T09:22:08.456Z,32.40
2019-01-06T09:25:05.898Z,30.80
2019-01-06T09:28:04.740Z,29.17
2019-01-06T09:30:52.058Z,25.20
2019-01-06T09:33:46.680Z,56.00
2019-01-06T09:36:33.597Z,80.17
2019-01-06T09:39:30.897Z,32.17
2019-01-06T09:42:28.710Z,40.83
2019-01-06T09:45:16.981Z,39.37
2019-01-06T09:48:03.809Z,32.57
2019-01-06T09:50:50.896Z,43.03
2019-01-06T09:53:42.187Z,51.47
2019-01-06T09:56:42.515Z,26.87
2019-01-06T09:59:37.910Z,26.03
2019-01-06T10:02:29.199Z,28.90
2019-01-06T10:05:20.310Z,28.57
2019-01-06T10:08:08.557Z,29.20
2019-01-06T10:11:05.940Z,23.03
2019-01-06T10:14:02.687Z,25.47
2019-01-06T10:17:09.504Z,24.33
2019-01-06T10:19:56.627Z,23.03
2019-01-06T10:22:48.037Z,24.90
2019-01-06T10:25:35.626Z,24.20
2019-01-06T10:28:39.287Z,23.03
2019-01-06T10:31:27.861Z,24.33
2019-01-06T10:34:15.232Z,24.33
2019-01-06T10:37:02.215Z,23.50
2019-01-06T10:39:49.172Z,25.00
2019-01-06T10:42:49.578Z,22.50
2019-01-06T10:45:34.956Z,23.03
2019-01-06T10:48:22.015Z,22.60
2019-01-06T10:51:13.260Z,25.00
2019-01-06T10:54:01.614Z,22.20
2019-01-06T10:56:48.789Z,25.00
2019-01-06T10:59:39.955Z,24.53
2019-01-06T11:02:34.521Z,20.27
2019-01-06T11:05:23.084Z,24.83
2019-01-06T11:08:11.326Z,24.20
2019-01-06T11:10:58.505Z,21.27
2019-01-06T11:13:41.203Z,23.87
2019-01-06T11:16:47.973Z,20.10
2019-01-06T11:19:36.192Z,23.10
2019-01-06T11:22:23.045Z,21.00
2019-01-06T11:25:14.018Z,21.70
2019-01-06T11:28:01.034Z,23.57
2019-01-06T11:30:48.204Z,24.00
2019-01-06T11:33:43.789Z,23.90
2019-01-06T11:36:31.525Z,23.37
2019-01-06T11:39:19.755Z,22.47
2019-01-06T11:42:08.505Z,21.93
2019-01-06T11:44:59.580Z,21.50
2019-01-06T11:47:47.841Z,20.80
2019-01-06T11:50:35.032Z,21.30
2019-01-06T11:53:23.797Z,24.97
2019-01-06T11:56:12.089Z,21.60
2019-01-06T11:59:03.414Z,23.33
2019-01-06T12:02:06.719Z,22.87
2019-01-06T12:04:53.587Z,23.20
2019-01-06T12:07:37.696Z,23.67
2019-01-06T12:10:17.269Z,23.70
2019-01-06T12:13:13.984Z,21.57
2019-01-06T12:15:56.929Z,23.30
2019-01-06T12:18:44.121Z,21.40
2019-01-06T12:21:32.865Z,21.80
2019-01-06T12:24:22.565Z,21.37
2019-01-06T12:27:08.133Z,24.30
2019-01-06T12:30:02.629Z,25.63
2019-01-06T12:32:59.799Z,25.97
2019-01-06T12:35:50.848Z,21.63
2019-01-06T12:38:43.286Z,23.30
2019-01-06T12:41:34.575Z,21.47
2019-01-06T12:44:22.893Z,35.10
2019-01-06T12:47:16.795Z,24.93
2019-01-06T12:50:04.059Z,24.23
2019-01-06T12:52:58.690Z,22.97
2019-01-06T12:55:53.085Z,23.80
2019-01-06T12:58:50.885Z,24.10
2019-01-06T13:01:37.761Z,22.50
2019-01-06T13:04:24.146Z,21.73
2019-01-06T13:07:11.521Z,23.27
2019-01-06T13:09:58.693Z,20.23
2019-01-06T13:12:45.880Z,20.70
2019-01-06T13:15:37.154Z,22.30
2019-01-06T13:18:24.299Z,20.43
2019-01-06T13:21:24.831Z,20.60
2019-01-06T13:24:29.893Z,18.43
2019-01-06T13:27:21.777Z,20.93
2019-01-06T13:30:16.157Z,20.70
2019-01-06T13:33:05.139Z,20.73
2019-01-06T13:35:56.493Z,21.70
2019-01-06T13:38:53.651Z,22.87
2019-01-06T13:41:40.544Z,21.93
2019-01-06T13:44:28.770Z,23.00
2019-01-06T13:47:20.237Z,20.87
2019-01-06T13:50:12.743Z,22.33
2019-01-06T13:52:59.974Z,19.80
2019-01-06T13:55:57.240Z,20.40
2019-01-06T13:58:44.408Z,19.17
2019-01-06T14:01:26.716Z,18.60
2019-01-06T14:04:16.313Z,18.43
2019-01-06T14:07:03.845Z,20.33
2019-01-06T14:09:50.816Z,18.43
2019-01-06T14:12:31.608Z,20.57
2019-01-06T14:15:18.556Z,16.30
2019-01-06T14:18:05.644Z,16.30
2019-01-06T14:21:03.544Z,16.70
2019-01-06T14:23:52.146Z,18.80
2019-01-06T14:26:40.389Z,19.00
2019-01-06T14:29:22.913Z,20.20
2019-01-06T14:32:26.474Z,20.37
2019-01-06T14:35:20.494Z,27.13
2019-01-06T14:38:14.838Z,35.70
2019-01-06T14:41:06.188Z,22.07
2019-01-06T14:43:50.788Z,25.40
2019-01-06T14:46:37.715Z,25.90
2019-01-06T14:49:32.358Z,19.80
2019-01-06T15:05:34.190Z,20.27
2019-01-06T15:08:28.663Z,16.83
2019-01-06T15:11:14.352Z,16.30
2019-01-06T15:14:18.048Z,17.90
2019-01-06T15:17:03.128Z,15.83
2019-01-06T15:19:50.355Z,16.57
2019-01-06T15:22:47.889Z,16.83
2019-01-06T15:25:34.992Z,16.80
2019-01-06T15:28:23.672Z,15.67
2019-01-06T15:31:14.977Z,17.33
2019-01-06T15:34:12.216Z,17.20
2019-01-06T15:37:12.567Z,16.10
2019-01-06T15:40:12.898Z,15.67
2019-01-06T15:43:16.301Z,16.97
2019-01-06T15:46:00.804Z,19.17
2019-01-06T15:48:48.097Z,20.80
2019-01-06T15:51:30.608Z,18.67
2019-01-06T15:54:17.697Z,21.13
2019-01-06T15:57:04.855Z,18.77
2019-01-06T15:59:56.259Z,21.47
2019-01-06T16:02:56.883Z,20.10
2019-01-06T16:05:41.982Z,22.40
2019-01-06T16:08:39.222Z,22.00
2019-01-06T16:11:26.441Z,21.80
2019-01-06T16:14:24.025Z,22.97
2019-01-06T16:17:18.076Z,26.23
2019-01-06T16:20:09.305Z,23.03
2019-01-06T16:23:00.424Z,25.43
2019-01-06T16:25:54.735Z,22.20
2019-01-06T16:28:43.246Z,24.00
2019-01-06T16:31:30.115Z,22.20
2019-01-06T16:34:24.327Z,24.30
2019-01-06T16:37:12.560Z,26.80
2019-01-06T16:40:04.000Z,25.93
2019-01-06T16:42:58.162Z,27.83
2019-01-06T16:46:04.554Z,26.10
2019-01-06T16:49:03.396Z,24.77
2019-01-06T16:51:51.605Z,26.97
2019-01-06T16:54:45.668Z,27.90
2019-01-06T16:57:32.609Z,30.60
2019-01-06T17:00:26.832Z,29.13
2019-01-06T17:03:33.644Z,26.10
2019-01-06T17:06:14.874Z,24.47
2019-01-06T17:09:05.901Z,28.30
2019-01-06T17:11:50.018Z,36.87
2019-01-06T17:14:29.777Z,29.50
2019-01-06T17:17:36.558Z,30.23
2019-01-06T17:20:36.982Z,25.60
2019-01-06T17:23:23.825Z,24.73
2019-01-06T17:26:12.041Z,26.07
2019-01-06T17:28:59.233Z,27.37
2019-01-06T17:31:53.680Z,26.23
2019-01-06T17:34:41.943Z,27.00
2019-01-06T17:37:41.594Z,26.20
2019-01-06T17:40:29.929Z,27.83
2019-01-06T17:43:33.276Z,25.80
2019-01-06T17:46:21.903Z,26.73
2019-01-06T17:49:10.051Z,27.30
2019-01-06T17:51:57.671Z,25.77
2019-01-06T17:54:52.241Z,27.57
2019-01-06T17:57:33.138Z,26.73
2019-01-06T18:00:20.641Z,25.77
2019-01-06T18:03:08.878Z,25.97
2019-01-06T18:06:06.397Z,26.47
2019-01-06T18:08:54.756Z,24.70
2019-01-06T18:11:47.740Z,27.50
2019-01-06T18:14:36.525Z,28.80
2019-01-06T18:17:23.882Z,26.00
2019-01-06T18:20:30.518Z,26.43
2019-01-06T18:23:33.772Z,29.13
2019-01-06T18:26:21.197Z,28.37
2019-01-06T18:29:02.836Z,29.03
2019-01-06T18:31:51.085Z,28.47
2019-01-06T18:34:39.307Z,28.27
2019-01-06T18:37:27.549Z,27.47
2019-01-06T18:40:14.637Z,25.73
2019-01-06T18:42:55.998Z,27.40
2019-01-06T18:46:02.429Z,29.00
2019-01-06T18:48:50.665Z,28.17
2019-01-06T18:51:52.472Z,29.70
2019-01-06T18:54:49.582Z,28.70
2019-01-06T18:57:52.926Z,25.90
2019-01-06T19:00:56.333Z,27.70
2019-01-06T19:03:55.476Z,27.60
2019-01-06T19:06:49.936Z,28.83
2019-01-06T19:09:38.173Z,29.73
2019-01-06T19:12:25.452Z,28.93
2019-01-06T19:15:13.700Z,28.57
2019-01-06T19:18:00.993Z,30.70
2019-01-06T19:21:07.618Z,28.97
2019-01-06T19:23:54.789Z,30.70
2019-01-06T19:26:43.058Z,30.20
2019-01-06T19:29:49.891Z,33.03
2019-01-06T19:32:38.280Z,30.43
2019-01-06T19:35:25.422Z,30.83
2019-01-06T19:38:20.320Z,33.77
2019-01-06T19:41:08.576Z,31.43
2019-01-06T19:44:15.179Z,32.40
2019-01-06T19:47:02.424Z,30.27
2019-01-06T19:49:54.378Z,32.57
2019-01-06T19:52:42.807Z,31.07
2019-01-06T19:55:24.950Z,33.17
2019-01-06T19:58:19.084Z,29.43
2019-01-06T20:01:06.420Z,31.83
2019-01-06T20:04:09.762Z,33.30
2019-01-06T20:07:00.841Z,30.97
2019-01-06T20:09:47.658Z,30.47
2019-01-06T20:12:44.749Z,35.17
2019-01-06T20:15:42.996Z,34.50
2019-01-06T20:18:34.130Z,35.13
2019-01-06T20:21:21.455Z,34.03
2019-01-06T20:24:08.593Z,32.93
2019-01-06T20:27:02.632Z,33.60
2019-01-06T20:29:49.651Z,32.10
2019-01-06T20:32:44.137Z,34.33
2019-01-06T20:35:26.433Z,34.53
2019-01-06T20:38:24.489Z,34.00
2019-01-06T20:41:31.165Z,35.13
2019-01-06T20:44:19.508Z,34.67
2019-01-06T20:47:16.873Z,35.00
2019-01-06T20:50:10.900Z,32.40
2019-01-06T20:52:57.728Z,35.60
2019-01-06T20:55:44.619Z,34.13
2019-01-06T20:58:31.480Z,33.00
2019-01-06T21:01:25.512Z,34.73
2019-01-06T21:04:12.643Z,33.20
2019-01-06T21:07:13.045Z,33.90
2019-01-06T21:10:00.274Z,32.73
2019-01-06T21:12:47.153Z,35.23
2019-01-06T21:15:44.625Z,33.20
2019-01-06T21:18:31.484Z,32.47
2019-01-06T21:21:18.576Z,34.73
2019-01-06T21:24:05.950Z,37.80
2019-01-06T21:26:55.302Z,31.90
2019-01-06T21:29:50.052Z,34.50
2019-01-06T21:32:37.485Z,36.50
2019-01-06T21:35:24.358Z,34.23
2019-01-06T21:38:12.576Z,36.23
2019-01-06T21:41:01.179Z,36.47
2019-01-06T21:44:00.803Z,34.10
2019-01-06T21:47:07.304Z,32.90
2019-01-06T21:49:58.553Z,29.80
2019-01-06T21:52:52.948Z,35.03
2019-01-06T21:55:41.198Z,34.30
2019-01-06T21:58:29.695Z,34.17
2019-01-06T22:01:16.761Z,33.03
2019-01-06T22:04:03.778Z,34.27
2019-01-06T22:06:47.787Z,38.93
2019-01-06T22:09:31.945Z,32.50
2019-01-06T22:12:23.689Z,34.43
2019-01-06T22:15:15.905Z,35.50
2019-01-06T22:18:08.788Z,37.60
2019-01-06T22:21:15.470Z,33.53
2019-01-06T22:24:02.538Z,36.23
2019-01-06T22:26:53.355Z,33.70
2019-01-06T22:29:44.449Z,35.67
2019-01-06T22:32:32.850Z,35.20
2019-01-06T22:35:20.298Z,36.00
2019-01-06T22:38:02.646Z,38.03
2019-01-06T22:40:50.898Z,34.93
2019-01-06T22:43:40.877Z,35.37
2019-01-06T22:46:48.205Z,35.60
2019-01-06T22:49:37.358Z,35.17
2019-01-06T22:52:22.398Z,34.43
2019-01-06T22:55:23.032Z,37.80
2019-01-06T22:58:11.338Z,35.90
2019-01-06T23:00:58.790Z,35.13
2019-01-06T23:03:57.984Z,36.07
2019-01-06T23:06:47.531Z,35.50
2019-01-06T23:09:34.820Z,36.17
2019-01-06T23:12:21.905Z,33.07
2019-01-06T23:15:08.785Z,33.53
2019-01-06T23:17:57.911Z,34.90
2019-01-06T23:20:55.353Z,35.93
2019-01-06T23:23:42.417Z,38.50
2019-01-06T23:26:30.692Z,33.57
2019-01-06T23:29:27.862Z,34.90
2019-01-06T23:32:15.124Z,36.63
2019-01-06T23:35:03.429Z,36.17
2019-01-06T23:38:00.629Z,40.03
2019-01-06T23:40:58.227Z,36.27
2019-01-06T23:43:49.260Z,33.03
2019-01-06T23:46:38.757Z,33.50
2019-01-06T23:49:25.608Z,35.00
2019-01-06T23:52:12.521Z,37.27
2019-01-06T23:55:00.875Z,34.20
2019-01-06T23:58:02.255Z,36.40
